createdAt,value
2018-05-07T00:00:03.618Z,4.63
2018-05-07T00:00:16.201Z,4.63
2018-05-07T00:00:28.629Z,4.63
2018-05-07T00:00:41.086Z,4.63
2018-05-07T00:00:53.661Z,4.63
2018-05-07T00:01:06.820Z,4.63
2018-05-07T00:01:20.058Z,4.63
2018-05-07T00:01:32.638Z,4.63
2018-05-07T00:01:45.079Z,4.63
2018-05-07T00:01:57.729Z,4.87
2018-05-07T00:02:10.154Z,4.87
2018-05-07T00:02:22.651Z,4.87
2018-05-07T00:02:35.167Z,4.87
2018-05-07T00:02:47.691Z,4.87
2018-05-07T00:03:00.399Z,4.87
2018-05-07T00:03:12.845Z,4.87
2018-05-07T00:03:25.419Z,4.87
2018-05-07T00:03:37.840Z,4.87
2018-05-07T00:03:50.301Z,4.87
2018-05-07T00:04:02.740Z,4.87
2018-05-07T00:04:15.229Z,4.87
2018-05-07T00:04:27.645Z,4.87
2018-05-07T00:04:40.069Z,4.87
2018-05-07T00:04:52.795Z,4.87
2018-05-07T00:05:05.317Z,4.87
2018-05-07T00:05:17.769Z,4.87
2018-05-07T00:05:30.198Z,4.87
2018-05-07T00:05:42.703Z,4.87
2018-05-07T00:05:56.371Z,4.87
2018-05-07T00:06:10.268Z,4.87
2018-05-07T00:06:23.570Z,4.87
2018-05-07T00:06:36.159Z,4.87
2018-05-07T00:06:48.604Z,4.87
2018-05-07T00:07:01.099Z,4.87
2018-05-07T00:07:13.685Z,4.87
2018-05-07T00:07:26.293Z,4.87
2018-05-07T00:07:38.871Z,4.87
2018-05-07T00:07:51.349Z,4.87
2018-05-07T00:08:03.916Z,4.87
2018-05-07T00:08:16.437Z,4.87
2018-05-07T00:08:28.874Z,4.87
2018-05-07T00:08:41.339Z,4.87
2018-05-07T00:08:53.788Z,4.87
2018-05-07T00:09:06.894Z,4.87
2018-05-07T00:09:19.672Z,4.87
2018-05-07T00:09:32.692Z,4.87
2018-05-07T00:09:46.147Z,4.87
2018-05-07T00:09:58.684Z,4.87
2018-05-07T00:10:11.321Z,4.87
2018-05-07T00:10:23.808Z,4.87
2018-05-07T00:10:36.274Z,4.87
2018-05-07T00:10:48.765Z,4.87
2018-05-07T00:11:01.186Z,4.87
2018-05-07T00:11:13.686Z,4.87
2018-05-07T00:11:26.187Z,4.87
2018-05-07T00:11:38.962Z,4.87
2018-05-07T00:11:52.416Z,5.57
2018-05-07T00:12:04.932Z,5.57
2018-05-07T00:12:17.339Z,5.57
2018-05-07T00:12:29.762Z,5.57
2018-05-07T00:12:42.222Z,5.57
2018-05-07T00:12:54.889Z,5.57
2018-05-07T00:13:07.419Z,5.57
2018-05-07T00:13:19.940Z,5.57
2018-05-07T00:13:32.463Z,5.57
2018-05-07T00:13:44.887Z,5.57
2018-05-07T00:13:57.354Z,5.57
2018-05-07T00:14:09.918Z,5.57
2018-05-07T00:14:22.375Z,5.57
2018-05-07T00:14:34.845Z,5.57
2018-05-07T00:14:47.258Z,5.57
2018-05-07T00:14:59.666Z,5.57
2018-05-07T00:15:12.069Z,5.57
2018-05-07T00:15:24.470Z,5.57
2018-05-07T00:15:37.007Z,5.57
2018-05-07T00:15:49.669Z,5.57
2018-05-07T00:16:02.139Z,5.57
2018-05-07T00:16:14.581Z,5.57
2018-05-07T00:16:26.976Z,5.57
2018-05-07T00:16:39.499Z,5.57
2018-05-07T00:16:51.974Z,5.57
2018-05-07T00:17:04.396Z,5.57
2018-05-07T00:17:16.847Z,5.57
2018-05-07T00:17:29.250Z,5.57
2018-05-07T00:17:41.692Z,5.57
2018-05-07T00:17:54.103Z,5.57
2018-05-07T00:18:06.505Z,5.57
2018-05-07T00:18:19.039Z,5.57
2018-05-07T00:18:31.461Z,5.57
2018-05-07T00:18:43.885Z,5.57
2018-05-07T00:18:56.304Z,5.57
2018-05-07T00:19:08.724Z,5.57
2018-05-07T00:19:21.172Z,5.57
2018-05-07T00:19:33.718Z,5.57
2018-05-07T00:19:46.144Z,5.57
2018-05-07T00:19:58.534Z,5.57
2018-05-07T00:20:10.957Z,5.57
2018-05-07T00:20:23.347Z,5.57
2018-05-07T00:20:35.992Z,5.57
2018-05-07T00:20:49.093Z,5.57
2018-05-07T00:21:01.510Z,5.57
2018-05-07T00:21:13.918Z,5.57
2018-05-07T00:21:26.322Z,5.57
2018-05-07T00:21:38.746Z,5.57
2018-05-07T00:21:51.157Z,5.57
2018-05-07T00:22:03.581Z,4.67
2018-05-07T00:22:16.080Z,4.67
2018-05-07T00:22:28.650Z,4.67
2018-05-07T00:22:41.485Z,4.67
2018-05-07T00:22:53.902Z,4.67
2018-05-07T00:23:06.328Z,4.67
2018-05-07T00:23:18.890Z,4.67
2018-05-07T00:23:31.325Z,4.67
2018-05-07T00:23:43.749Z,4.67
2018-05-07T00:23:56.309Z,4.67
2018-05-07T00:24:08.713Z,4.67
2018-05-07T00:24:21.122Z,4.67
2018-05-07T00:24:33.721Z,4.67
2018-05-07T00:24:46.137Z,4.67
2018-05-07T00:24:58.581Z,4.67
2018-05-07T00:25:11.008Z,4.67
2018-05-07T00:25:23.445Z,4.67
2018-05-07T00:25:35.969Z,4.67
2018-05-07T00:25:48.421Z,4.67
2018-05-07T00:26:00.829Z,4.67
2018-05-07T00:26:13.228Z,4.67
2018-05-07T00:26:25.657Z,4.67
2018-05-07T00:26:38.661Z,4.67
2018-05-07T00:26:51.594Z,4.67
2018-05-07T00:27:04.016Z,4.67
2018-05-07T00:27:16.511Z,4.67
2018-05-07T00:27:29.031Z,4.67
2018-05-07T00:27:41.536Z,4.67
2018-05-07T00:27:53.963Z,4.67
2018-05-07T00:28:06.373Z,4.67
2018-05-07T00:28:19.113Z,4.67
2018-05-07T00:28:31.977Z,4.67
2018-05-07T00:28:44.696Z,4.67
2018-05-07T00:28:57.106Z,4.67
2018-05-07T00:29:09.622Z,4.67
2018-05-07T00:29:22.035Z,4.67
2018-05-07T00:29:34.518Z,4.67
2018-05-07T00:29:46.919Z,4.67
2018-05-07T00:29:59.328Z,4.67
2018-05-07T00:30:11.783Z,4.67
2018-05-07T00:30:24.211Z,4.67
2018-05-07T00:30:36.641Z,4.67
2018-05-07T00:30:49.050Z,4.67
2018-05-07T00:31:01.500Z,4.67
2018-05-07T00:31:13.900Z,4.67
2018-05-07T00:31:26.338Z,4.67
2018-05-07T00:31:38.748Z,4.67
2018-05-07T00:31:51.206Z,4.67
2018-05-07T00:32:03.666Z,5.83
2018-05-07T00:32:16.083Z,5.83
2018-05-07T00:32:28.487Z,5.83
2018-05-07T00:32:40.910Z,5.83
2018-05-07T00:32:53.318Z,5.83
2018-05-07T00:33:05.794Z,5.83
2018-05-07T00:33:19.098Z,5.83
2018-05-07T00:33:31.695Z,5.83
2018-05-07T00:33:44.101Z,5.83
2018-05-07T00:33:56.551Z,5.83
2018-05-07T00:34:08.955Z,5.83
2018-05-07T00:34:21.368Z,5.83
2018-05-07T00:34:33.893Z,5.83
2018-05-07T00:34:46.378Z,5.83
2018-05-07T00:34:59.162Z,5.83
2018-05-07T00:35:11.969Z,5.83
2018-05-07T00:35:24.388Z,5.83
2018-05-07T00:35:36.788Z,5.83
2018-05-07T00:35:49.211Z,5.83
2018-05-07T00:36:01.633Z,5.83
2018-05-07T00:36:14.042Z,5.83
2018-05-07T00:36:26.455Z,5.83
2018-05-07T00:36:38.860Z,5.83
2018-05-07T00:36:51.273Z,5.83
2018-05-07T00:37:03.682Z,5.83
2018-05-07T00:37:16.079Z,5.83
2018-05-07T00:37:28.492Z,5.83
2018-05-07T00:37:40.899Z,5.83
2018-05-07T00:37:53.349Z,5.83
2018-05-07T00:38:05.760Z,5.83
2018-05-07T00:38:18.279Z,5.83
2018-05-07T00:38:30.701Z,5.83
2018-05-07T00:38:43.107Z,5.83
2018-05-07T00:38:55.584Z,5.83
2018-05-07T00:39:07.992Z,5.83
2018-05-07T00:39:20.390Z,5.83
2018-05-07T00:39:32.794Z,5.83
2018-05-07T00:39:45.215Z,5.83
2018-05-07T00:39:57.627Z,5.83
2018-05-07T00:40:10.058Z,5.83
2018-05-07T00:40:22.468Z,5.83
2018-05-07T00:40:34.915Z,5.83
2018-05-07T00:40:47.319Z,5.83
2018-05-07T00:40:59.720Z,5.83
2018-05-07T00:41:12.122Z,5.83
2018-05-07T00:41:24.687Z,5.83
2018-05-07T00:41:37.095Z,5.83
2018-05-07T00:41:49.508Z,5.83
2018-05-07T00:42:01.916Z,5.67
2018-05-07T00:42:14.329Z,5.67
2018-05-07T00:42:26.735Z,5.67
2018-05-07T00:42:39.164Z,5.67
2018-05-07T00:42:51.598Z,5.67
2018-05-07T00:43:03.999Z,5.67
2018-05-07T00:43:16.408Z,5.67
2018-05-07T00:43:28.827Z,5.67
2018-05-07T00:43:41.306Z,5.67
2018-05-07T00:43:53.946Z,5.67
2018-05-07T00:44:06.448Z,5.67
2018-05-07T00:44:18.849Z,5.67
2018-05-07T00:44:31.256Z,5.67
2018-05-07T00:44:43.677Z,5.67
2018-05-07T00:44:56.093Z,5.67
2018-05-07T00:45:08.515Z,5.67
2018-05-07T00:45:20.930Z,5.67
2018-05-07T00:45:33.349Z,5.67
2018-05-07T00:45:45.765Z,5.67
2018-05-07T00:45:58.195Z,5.67
2018-05-07T00:46:10.609Z,5.67
2018-05-07T00:46:23.009Z,5.67
2018-05-07T00:46:35.418Z,5.67
2018-05-07T00:46:47.829Z,5.67
2018-05-07T00:47:00.222Z,5.67
2018-05-07T00:47:12.644Z,5.67
2018-05-07T00:47:25.044Z,5.67
2018-05-07T00:47:37.452Z,5.67
2018-05-07T00:47:49.871Z,5.67
2018-05-07T00:48:02.308Z,5.67
2018-05-07T00:48:14.842Z,5.67
2018-05-07T00:48:27.255Z,5.67
2018-05-07T00:48:39.664Z,5.67
2018-05-07T00:48:52.077Z,5.67
2018-05-07T00:49:04.505Z,5.67
2018-05-07T00:49:16.907Z,5.67
2018-05-07T00:49:29.318Z,5.67
2018-05-07T00:49:41.809Z,5.67
2018-05-07T00:49:54.239Z,5.67
2018-05-07T00:50:06.749Z,5.67
2018-05-07T00:50:19.166Z,5.67
2018-05-07T00:50:31.876Z,5.67
2018-05-07T00:50:44.297Z,5.67
2018-05-07T00:50:56.731Z,5.67
2018-05-07T00:51:09.139Z,5.67
2018-05-07T00:51:21.545Z,5.67
2018-05-07T00:51:33.971Z,5.67
2018-05-07T00:51:46.456Z,5.67
2018-05-07T00:51:58.885Z,6.67
2018-05-07T00:52:11.285Z,6.67
2018-05-07T00:52:23.698Z,6.67
2018-05-07T00:52:36.097Z,6.67
2018-05-07T00:52:48.493Z,6.67
2018-05-07T00:53:00.920Z,6.67
2018-05-07T00:53:13.378Z,6.67
2018-05-07T00:53:25.785Z,6.67
2018-05-07T00:53:38.201Z,6.67
2018-05-07T00:53:50.611Z,6.67
2018-05-07T00:54:03.039Z,6.67
2018-05-07T00:54:15.444Z,6.67
2018-05-07T00:54:27.850Z,6.67
2018-05-07T00:54:40.269Z,6.67
2018-05-07T00:54:52.736Z,6.67
2018-05-07T00:55:05.145Z,6.67
2018-05-07T00:55:17.561Z,6.67
2018-05-07T00:55:29.966Z,6.67
2018-05-07T00:55:42.414Z,6.67
2018-05-07T00:55:54.822Z,6.67
2018-05-07T00:56:07.237Z,6.67
2018-05-07T00:56:19.631Z,6.67
2018-05-07T00:56:32.035Z,6.67
2018-05-07T00:56:44.434Z,6.67
2018-05-07T00:56:56.868Z,6.67
2018-05-07T00:57:09.278Z,6.67
2018-05-07T00:57:21.674Z,6.67
2018-05-07T00:57:34.091Z,6.67
2018-05-07T00:57:46.593Z,6.67
2018-05-07T00:57:59.012Z,6.67
2018-05-07T00:58:11.418Z,6.67
2018-05-07T00:58:23.836Z,6.67
2018-05-07T00:58:36.263Z,6.67
2018-05-07T00:58:48.675Z,6.67
2018-05-07T00:59:01.087Z,6.67
2018-05-07T00:59:13.502Z,6.67
2018-05-07T00:59:25.929Z,6.67
2018-05-07T00:59:38.328Z,6.67
2018-05-07T00:59:50.730Z,6.67
2018-05-07T01:00:03.160Z,6.67
2018-05-07T01:00:15.586Z,6.67
2018-05-07T01:00:28.035Z,6.67
2018-05-07T01:00:40.634Z,6.67
2018-05-07T01:00:53.048Z,6.67
2018-05-07T01:01:05.443Z,6.67
2018-05-07T01:01:17.845Z,6.67
2018-05-07T01:01:30.271Z,6.67
2018-05-07T01:01:42.700Z,6.67
2018-05-07T01:01:55.189Z,6.13
2018-05-07T01:02:07.609Z,6.13
2018-05-07T01:02:20.179Z,6.13
2018-05-07T01:02:32.606Z,6.13
2018-05-07T01:02:45.023Z,6.13
2018-05-07T01:02:57.452Z,6.13
2018-05-07T01:03:09.871Z,6.13
2018-05-07T01:03:22.291Z,6.13
2018-05-07T01:03:34.727Z,6.13
2018-05-07T01:03:47.160Z,6.13
2018-05-07T01:03:59.597Z,6.13
2018-05-07T01:04:12.136Z,6.13
2018-05-07T01:04:24.544Z,6.13
2018-05-07T01:04:36.977Z,6.13
2018-05-07T01:04:49.384Z,6.13
2018-05-07T01:05:01.789Z,6.13
2018-05-07T01:05:14.215Z,6.13
2018-05-07T01:05:26.710Z,6.13
2018-05-07T01:05:39.133Z,6.13
2018-05-07T01:05:51.611Z,6.13
2018-05-07T01:06:04.022Z,6.13
2018-05-07T01:06:16.444Z,6.13
2018-05-07T01:06:28.883Z,6.13
2018-05-07T01:06:41.366Z,6.13
2018-05-07T01:06:53.766Z,6.13
2018-05-07T01:07:06.232Z,6.13
2018-05-07T01:07:18.646Z,6.13
2018-05-07T01:07:31.141Z,6.13
2018-05-07T01:07:43.553Z,6.13
2018-05-07T01:07:55.974Z,6.13
2018-05-07T01:08:08.388Z,6.13
2018-05-07T01:08:20.855Z,6.13
2018-05-07T01:08:33.248Z,6.13
2018-05-07T01:08:45.659Z,6.13
2018-05-07T01:08:58.083Z,6.13
2018-05-07T01:09:10.487Z,6.13
2018-05-07T01:09:22.886Z,6.13
2018-05-07T01:09:35.343Z,6.13
2018-05-07T01:09:47.738Z,6.13
2018-05-07T01:10:00.139Z,6.13
2018-05-07T01:10:12.557Z,6.13
2018-05-07T01:10:24.959Z,6.13
2018-05-07T01:10:37.377Z,6.13
2018-05-07T01:10:49.781Z,6.13
2018-05-07T01:11:02.182Z,6.13
2018-05-07T01:11:14.591Z,6.13
2018-05-07T01:11:27.291Z,6.13
2018-05-07T01:11:39.712Z,6.13
2018-05-07T01:11:52.123Z,6.13
2018-05-07T01:12:04.541Z,5.83
2018-05-07T01:12:16.949Z,5.83
2018-05-07T01:12:29.366Z,5.83
2018-05-07T01:12:41.962Z,5.83
2018-05-07T01:12:55.376Z,5.83
2018-05-07T01:13:07.781Z,5.83
2018-05-07T01:13:20.182Z,5.83
2018-05-07T01:13:32.600Z,5.83
2018-05-07T01:13:45.021Z,5.83
2018-05-07T01:13:57.424Z,5.83
2018-05-07T01:14:09.831Z,5.83
2018-05-07T01:14:22.240Z,5.83
2018-05-07T01:14:34.659Z,5.83
2018-05-07T01:14:47.101Z,5.83
2018-05-07T01:14:59.523Z,5.83
2018-05-07T01:15:11.962Z,5.83
2018-05-07T01:15:24.375Z,5.83
2018-05-07T01:15:36.803Z,5.83
2018-05-07T01:15:49.207Z,5.83
2018-05-07T01:16:01.626Z,5.83
2018-05-07T01:16:14.040Z,5.83
2018-05-07T01:16:26.521Z,5.83
2018-05-07T01:16:38.930Z,5.83
2018-05-07T01:16:51.359Z,5.83
2018-05-07T01:17:03.750Z,5.83
2018-05-07T01:17:16.237Z,5.83
2018-05-07T01:17:28.666Z,5.83
2018-05-07T01:17:41.195Z,5.83
2018-05-07T01:17:53.698Z,5.83
2018-05-07T01:18:06.129Z,5.83
2018-05-07T01:18:18.724Z,5.83
2018-05-07T01:18:31.116Z,5.83
2018-05-07T01:18:43.517Z,5.83
2018-05-07T01:18:55.913Z,5.83
2018-05-07T01:19:08.349Z,5.83
2018-05-07T01:19:20.748Z,5.83
2018-05-07T01:19:33.161Z,5.83
2018-05-07T01:19:45.557Z,5.83
2018-05-07T01:19:57.962Z,5.83
2018-05-07T01:20:10.444Z,5.83
2018-05-07T01:20:22.874Z,5.83
2018-05-07T01:20:35.270Z,5.83
2018-05-07T01:20:47.674Z,5.83
2018-05-07T01:21:00.110Z,5.83
2018-05-07T01:21:12.519Z,5.83
2018-05-07T01:21:24.936Z,5.83
2018-05-07T01:21:37.349Z,5.83
2018-05-07T01:21:49.747Z,5.83
2018-05-07T01:22:02.156Z,6.23
2018-05-07T01:22:14.549Z,6.23
2018-05-07T01:22:26.975Z,6.23
2018-05-07T01:22:39.401Z,6.23
2018-05-07T01:22:51.837Z,6.23
2018-05-07T01:23:04.280Z,6.23
2018-05-07T01:23:16.685Z,6.23
2018-05-07T01:23:29.181Z,6.23
2018-05-07T01:23:41.602Z,6.23
2018-05-07T01:23:54.152Z,6.23
2018-05-07T01:24:06.584Z,6.23
2018-05-07T01:24:18.992Z,6.23
2018-05-07T01:24:31.432Z,6.23
2018-05-07T01:24:43.986Z,6.23
2018-05-07T01:24:56.487Z,6.23
2018-05-07T01:25:08.897Z,6.23
2018-05-07T01:25:21.302Z,6.23
2018-05-07T01:25:33.702Z,6.23
2018-05-07T01:25:46.109Z,6.23
2018-05-07T01:25:58.525Z,6.23
2018-05-07T01:26:10.939Z,6.23
2018-05-07T01:26:23.369Z,6.23
2018-05-07T01:26:35.780Z,6.23
2018-05-07T01:26:48.256Z,6.23
2018-05-07T01:27:00.678Z,6.23
2018-05-07T01:27:13.128Z,6.23
2018-05-07T01:27:25.534Z,6.23
2018-05-07T01:27:37.941Z,6.23
2018-05-07T01:27:50.357Z,6.23
2018-05-07T01:28:02.772Z,6.23
2018-05-07T01:28:15.192Z,6.23
2018-05-07T01:28:27.614Z,6.23
2018-05-07T01:28:40.045Z,6.23
2018-05-07T01:28:52.470Z,6.23
2018-05-07T01:29:04.897Z,6.23
2018-05-07T01:29:17.308Z,6.23
2018-05-07T01:29:29.745Z,6.23
2018-05-07T01:29:42.185Z,6.23
2018-05-07T01:29:54.599Z,6.23
2018-05-07T01:30:07.009Z,6.23
2018-05-07T01:30:19.410Z,6.23
2018-05-07T01:30:31.834Z,6.23
2018-05-07T01:30:44.254Z,6.23
2018-05-07T01:30:56.653Z,6.23
2018-05-07T01:31:09.130Z,6.23
2018-05-07T01:31:21.538Z,6.23
2018-05-07T01:31:33.948Z,6.23
2018-05-07T01:31:46.364Z,6.23
2018-05-07T01:31:58.787Z,5.25
2018-05-07T01:32:11.201Z,5.25
2018-05-07T01:32:23.606Z,5.25
2018-05-07T01:32:36.026Z,5.25
2018-05-07T01:32:48.438Z,5.25
2018-05-07T01:33:00.852Z,5.25
2018-05-07T01:33:13.261Z,5.25
2018-05-07T01:33:25.683Z,5.25
2018-05-07T01:33:38.088Z,5.25
2018-05-07T01:33:50.489Z,5.25
2018-05-07T01:34:02.893Z,5.25
2018-05-07T01:34:15.304Z,5.25
2018-05-07T01:34:27.712Z,5.25
2018-05-07T01:34:40.182Z,5.25
2018-05-07T01:34:52.584Z,5.25
2018-05-07T01:35:04.993Z,5.25
2018-05-07T01:35:17.421Z,5.25
2018-05-07T01:35:29.818Z,5.25
2018-05-07T01:35:42.236Z,5.25
2018-05-07T01:35:54.661Z,5.25
2018-05-07T01:36:07.066Z,5.25
2018-05-07T01:36:19.472Z,5.25
2018-05-07T01:36:31.890Z,5.25
2018-05-07T01:36:44.295Z,5.25
2018-05-07T01:36:56.729Z,5.25
2018-05-07T01:37:09.154Z,5.25
2018-05-07T01:37:21.558Z,5.25
2018-05-07T01:37:33.959Z,5.25
2018-05-07T01:37:46.386Z,5.25
2018-05-07T01:37:58.793Z,5.25
2018-05-07T01:38:11.205Z,5.25
2018-05-07T01:38:23.738Z,5.25
2018-05-07T01:38:36.145Z,5.25
2018-05-07T01:38:48.546Z,5.25
2018-05-07T01:39:00.978Z,5.25
2018-05-07T01:39:13.374Z,5.25
2018-05-07T01:39:25.776Z,5.25
2018-05-07T01:39:38.175Z,5.25
2018-05-07T01:39:50.577Z,5.25
2018-05-07T01:40:02.983Z,5.25
2018-05-07T01:40:15.383Z,5.25
2018-05-07T01:40:27.788Z,5.25
2018-05-07T01:40:40.198Z,5.25
2018-05-07T01:40:52.613Z,5.25
2018-05-07T01:41:05.019Z,5.25
2018-05-07T01:41:17.419Z,5.25
2018-05-07T01:41:29.825Z,5.25
2018-05-07T01:41:42.386Z,5.25
2018-05-07T01:41:54.797Z,5.25
2018-05-07T01:42:07.215Z,5.68
2018-05-07T01:42:19.619Z,5.68
2018-05-07T01:42:32.018Z,5.68
2018-05-07T01:42:44.433Z,5.68
2018-05-07T01:42:56.838Z,5.68
2018-05-07T01:43:09.236Z,5.68
2018-05-07T01:43:21.707Z,5.68
2018-05-07T01:43:34.142Z,5.68
2018-05-07T01:43:46.562Z,5.68
2018-05-07T01:43:59.107Z,5.68
2018-05-07T01:44:11.507Z,5.68
2018-05-07T01:44:23.930Z,5.68
2018-05-07T01:44:36.335Z,5.68
2018-05-07T01:44:48.731Z,5.68
2018-05-07T01:45:01.170Z,5.68
2018-05-07T01:45:13.579Z,5.68
2018-05-07T01:45:25.977Z,5.68
2018-05-07T01:45:38.381Z,5.68
2018-05-07T01:45:50.781Z,5.68
2018-05-07T01:46:03.208Z,5.68
2018-05-07T01:46:15.620Z,5.68
2018-05-07T01:46:28.111Z,5.68
2018-05-07T01:46:40.595Z,5.68
2018-05-07T01:46:53.003Z,5.68
2018-05-07T01:47:05.430Z,5.68
2018-05-07T01:47:17.855Z,5.68
2018-05-07T01:47:30.267Z,5.68
2018-05-07T01:47:42.688Z,5.68
2018-05-07T01:47:55.113Z,5.68
2018-05-07T01:48:07.511Z,5.68
2018-05-07T01:48:20.115Z,5.68
2018-05-07T01:48:32.623Z,5.68
2018-05-07T01:48:45.027Z,5.68
2018-05-07T01:48:57.432Z,5.68
2018-05-07T01:49:09.854Z,5.68
2018-05-07T01:49:22.256Z,5.68
2018-05-07T01:49:34.751Z,5.68
2018-05-07T01:49:47.145Z,5.68
2018-05-07T01:49:59.581Z,5.68
2018-05-07T01:50:11.996Z,5.68
2018-05-07T01:50:24.407Z,5.68
2018-05-07T01:50:36.821Z,5.68
2018-05-07T01:50:49.237Z,5.68
2018-05-07T01:51:01.685Z,5.68
2018-05-07T01:51:14.127Z,5.68
2018-05-07T01:51:26.586Z,5.68
2018-05-07T01:51:38.977Z,5.68
2018-05-07T01:51:51.380Z,5.68
2018-05-07T01:52:03.788Z,5.17
2018-05-07T01:52:16.283Z,5.17
2018-05-07T01:52:28.692Z,5.17
2018-05-07T01:52:41.110Z,5.17
2018-05-07T01:52:53.517Z,5.17
2018-05-07T01:53:05.923Z,5.17
2018-05-07T01:53:18.339Z,5.17
2018-05-07T01:53:30.919Z,5.17
2018-05-07T01:53:43.325Z,5.17
2018-05-07T01:53:55.722Z,5.17
2018-05-07T01:54:08.121Z,5.17
2018-05-07T01:54:20.527Z,5.17
2018-05-07T01:54:32.937Z,5.17
2018-05-07T01:54:45.342Z,5.17
2018-05-07T01:54:57.751Z,5.17
2018-05-07T01:55:10.151Z,5.17
2018-05-07T01:55:22.537Z,5.17
2018-05-07T01:55:34.954Z,5.17
2018-05-07T01:55:47.422Z,5.17
2018-05-07T01:55:59.838Z,5.17
2018-05-07T01:56:12.265Z,5.17
2018-05-07T01:56:24.681Z,5.17
2018-05-07T01:56:37.080Z,5.17
2018-05-07T01:56:49.473Z,5.17
2018-05-07T01:57:01.887Z,5.17
2018-05-07T01:57:14.290Z,5.17
2018-05-07T01:57:26.698Z,5.17
2018-05-07T01:57:39.109Z,5.17
2018-05-07T01:57:51.504Z,5.17
2018-05-07T01:58:03.908Z,5.17
2018-05-07T01:58:16.327Z,5.17
2018-05-07T01:58:28.730Z,5.17
2018-05-07T01:58:41.185Z,5.17
2018-05-07T01:58:53.605Z,5.17
2018-05-07T01:59:06.077Z,5.17
2018-05-07T01:59:18.489Z,5.17
2018-05-07T01:59:30.916Z,5.17
2018-05-07T01:59:43.412Z,5.17
2018-05-07T01:59:55.951Z,5.17
2018-05-07T02:00:08.391Z,5.17
2018-05-07T02:00:20.828Z,5.17
2018-05-07T02:00:33.293Z,5.17
2018-05-07T02:00:45.817Z,5.17
2018-05-07T02:00:58.228Z,5.17
2018-05-07T02:01:10.651Z,5.17
2018-05-07T02:01:23.070Z,5.17
2018-05-07T02:01:35.461Z,5.17
2018-05-07T02:01:47.885Z,5.17
2018-05-07T02:02:00.301Z,7.4
2018-05-07T02:02:12.714Z,7.4
2018-05-07T02:02:25.217Z,7.4
2018-05-07T02:02:37.707Z,7.4
2018-05-07T02:02:50.116Z,7.4
2018-05-07T02:03:02.560Z,7.4
2018-05-07T02:03:14.994Z,7.4
2018-05-07T02:03:27.416Z,7.4
2018-05-07T02:03:39.854Z,7.4
2018-05-07T02:03:52.289Z,7.4
2018-05-07T02:04:04.706Z,7.4
2018-05-07T02:04:17.202Z,7.4
2018-05-07T02:04:29.607Z,7.4
2018-05-07T02:04:42.014Z,7.4
2018-05-07T02:04:54.416Z,7.4
2018-05-07T02:05:06.901Z,7.4
2018-05-07T02:05:19.307Z,7.4
2018-05-07T02:05:31.793Z,7.4
2018-05-07T02:05:44.191Z,7.4
2018-05-07T02:05:56.591Z,7.4
2018-05-07T02:06:09.004Z,7.4
2018-05-07T02:06:21.406Z,7.4
2018-05-07T02:06:33.826Z,7.4
2018-05-07T02:06:46.240Z,7.4
2018-05-07T02:06:58.669Z,7.4
2018-05-07T02:07:11.063Z,7.4
2018-05-07T02:07:23.472Z,7.4
2018-05-07T02:07:35.883Z,7.4
2018-05-07T02:07:48.303Z,7.4
2018-05-07T02:08:00.744Z,7.4
2018-05-07T02:08:13.166Z,7.4
2018-05-07T02:08:25.589Z,7.4
2018-05-07T02:08:38.008Z,7.4
2018-05-07T02:08:50.418Z,7.4
2018-05-07T02:09:02.812Z,7.4
2018-05-07T02:09:15.222Z,7.4
2018-05-07T02:09:27.636Z,7.4
2018-05-07T02:09:40.052Z,7.4
2018-05-07T02:09:52.456Z,7.4
2018-05-07T02:10:04.924Z,7.4
2018-05-07T02:10:17.422Z,7.4
2018-05-07T02:10:29.830Z,7.4
2018-05-07T02:10:42.246Z,7.4
2018-05-07T02:10:54.741Z,7.4
2018-05-07T02:11:07.146Z,7.4
2018-05-07T02:11:19.546Z,7.4
2018-05-07T02:11:32.078Z,7.4
2018-05-07T02:11:44.486Z,7.4
2018-05-07T02:11:56.901Z,5.04
2018-05-07T02:12:09.316Z,5.04
2018-05-07T02:12:21.717Z,5.04
2018-05-07T02:12:34.127Z,5.04
2018-05-07T02:12:46.529Z,5.04
2018-05-07T02:12:58.932Z,5.04
2018-05-07T02:13:11.351Z,5.04
2018-05-07T02:13:23.772Z,5.04
2018-05-07T02:13:36.206Z,5.04
2018-05-07T02:13:48.607Z,5.04
2018-05-07T02:14:01.020Z,5.04
2018-05-07T02:14:13.518Z,5.04
2018-05-07T02:14:25.918Z,5.04
2018-05-07T02:14:38.346Z,5.04
2018-05-07T02:14:50.746Z,5.04
2018-05-07T02:15:03.145Z,5.04
2018-05-07T02:15:15.546Z,5.04
2018-05-07T02:15:27.954Z,5.04
2018-05-07T02:15:40.359Z,5.04
2018-05-07T02:15:52.758Z,5.04
2018-05-07T02:16:05.164Z,5.04
2018-05-07T02:16:17.582Z,5.04
2018-05-07T02:16:30.041Z,5.04
2018-05-07T02:16:42.450Z,5.04
2018-05-07T02:16:54.877Z,5.04
2018-05-07T02:17:07.280Z,5.04
2018-05-07T02:17:19.694Z,5.04
2018-05-07T02:17:32.110Z,5.04
2018-05-07T02:17:44.533Z,5.04
2018-05-07T02:17:56.935Z,5.04
2018-05-07T02:18:09.348Z,5.04
2018-05-07T02:18:21.997Z,5.04
2018-05-07T02:18:34.413Z,5.04
2018-05-07T02:18:46.843Z,5.04
2018-05-07T02:18:59.242Z,5.04
2018-05-07T02:19:11.670Z,5.04
2018-05-07T02:19:24.064Z,5.04
2018-05-07T02:19:36.494Z,5.04
2018-05-07T02:19:48.923Z,5.04
2018-05-07T02:20:01.339Z,5.04
2018-05-07T02:20:13.751Z,5.04
2018-05-07T02:20:26.153Z,5.04
2018-05-07T02:20:38.633Z,5.04
2018-05-07T02:20:51.048Z,5.04
2018-05-07T02:21:03.462Z,5.04
2018-05-07T02:21:15.872Z,5.04
2018-05-07T02:21:28.287Z,5.04
2018-05-07T02:21:40.712Z,5.04
2018-05-07T02:21:53.202Z,5.04
2018-05-07T02:22:05.608Z,7.57
2018-05-07T02:22:18.011Z,7.57
2018-05-07T02:22:30.431Z,7.57
2018-05-07T02:22:42.848Z,7.57
2018-05-07T02:22:55.255Z,7.57
2018-05-07T02:23:07.687Z,7.57
2018-05-07T02:23:20.142Z,7.57
2018-05-07T02:23:32.546Z,7.57
2018-05-07T02:23:45.090Z,7.57
2018-05-07T02:23:57.488Z,7.57
2018-05-07T02:24:09.908Z,7.57
2018-05-07T02:24:22.319Z,7.57
2018-05-07T02:24:34.909Z,7.57
2018-05-07T02:24:47.314Z,7.57
2018-05-07T02:24:59.718Z,7.57
2018-05-07T02:25:12.132Z,7.57
2018-05-07T02:25:24.537Z,7.57
2018-05-07T02:25:36.949Z,7.57
2018-05-07T02:25:49.373Z,7.57
2018-05-07T02:26:01.783Z,7.57
2018-05-07T02:26:14.199Z,7.57
2018-05-07T02:26:26.607Z,7.57
2018-05-07T02:26:39.019Z,7.57
2018-05-07T02:26:51.449Z,7.57
2018-05-07T02:27:03.855Z,7.57
2018-05-07T02:27:16.274Z,7.57
2018-05-07T02:27:28.681Z,7.57
2018-05-07T02:27:41.084Z,7.57
2018-05-07T02:27:53.486Z,7.57
2018-05-07T02:28:05.910Z,7.57
2018-05-07T02:28:18.320Z,7.57
2018-05-07T02:28:30.748Z,7.57
2018-05-07T02:28:43.148Z,7.57
2018-05-07T02:28:55.571Z,7.57
2018-05-07T02:29:07.985Z,7.57
2018-05-07T02:29:20.483Z,7.57
2018-05-07T02:29:32.927Z,7.57
2018-05-07T02:29:45.443Z,7.57
2018-05-07T02:29:57.862Z,7.57
2018-05-07T02:30:10.312Z,7.57
2018-05-07T02:30:22.740Z,7.57
2018-05-07T02:30:35.188Z,7.57
2018-05-07T02:30:47.610Z,7.57
2018-05-07T02:31:00.040Z,7.57
2018-05-07T02:31:12.472Z,7.57
2018-05-07T02:31:25.624Z,7.57
2018-05-07T02:31:38.565Z,7.57
2018-05-07T02:31:50.998Z,7.57
2018-05-07T02:32:03.430Z,6.81
2018-05-07T02:32:15.850Z,6.81
2018-05-07T02:32:28.286Z,6.81
2018-05-07T02:32:40.701Z,6.81
2018-05-07T02:32:53.139Z,6.81
2018-05-07T02:33:05.610Z,6.81
2018-05-07T02:33:18.041Z,6.81
2018-05-07T02:33:30.523Z,6.81
2018-05-07T02:33:42.964Z,6.81
2018-05-07T02:33:55.378Z,6.81
2018-05-07T02:34:07.814Z,6.81
2018-05-07T02:34:20.228Z,6.81
2018-05-07T02:34:32.657Z,6.81
2018-05-07T02:34:45.146Z,6.81
2018-05-07T02:34:57.585Z,6.81
2018-05-07T02:35:10.041Z,6.81
2018-05-07T02:35:22.588Z,6.81
2018-05-07T02:35:35.013Z,6.81
2018-05-07T02:35:47.427Z,6.81
2018-05-07T02:35:59.846Z,6.81
2018-05-07T02:36:12.268Z,6.81
2018-05-07T02:36:24.711Z,6.81
2018-05-07T02:36:37.143Z,6.81
2018-05-07T02:36:49.590Z,6.81
2018-05-07T02:37:02.091Z,6.81
2018-05-07T02:37:14.529Z,6.81
2018-05-07T02:37:26.972Z,6.81
2018-05-07T02:37:39.443Z,6.81
2018-05-07T02:37:51.854Z,6.81
2018-05-07T02:38:04.299Z,6.81
2018-05-07T02:38:16.710Z,6.81
2018-05-07T02:38:29.257Z,6.81
2018-05-07T02:38:41.708Z,6.81
2018-05-07T02:38:54.331Z,6.81
2018-05-07T02:39:07.821Z,6.81
2018-05-07T02:39:20.264Z,6.81
2018-05-07T02:39:32.711Z,6.81
2018-05-07T02:39:45.121Z,6.81
2018-05-07T02:39:57.560Z,6.81
2018-05-07T02:40:09.987Z,6.81
2018-05-07T02:40:22.412Z,6.81
2018-05-07T02:40:34.834Z,6.81
2018-05-07T02:40:47.257Z,6.81
2018-05-07T02:40:59.669Z,6.81
2018-05-07T02:41:12.094Z,6.81
2018-05-07T02:41:24.503Z,6.81
2018-05-07T02:41:36.936Z,6.81
2018-05-07T02:41:49.450Z,6.81
2018-05-07T02:42:01.891Z,7.39
2018-05-07T02:42:14.331Z,7.39
2018-05-07T02:42:26.756Z,7.39
2018-05-07T02:42:39.186Z,7.39
2018-05-07T02:42:51.693Z,7.39
2018-05-07T02:43:04.114Z,7.39
2018-05-07T02:43:16.548Z,7.39
2018-05-07T02:43:29.022Z,7.39
2018-05-07T02:43:41.446Z,7.39
2018-05-07T02:43:54.200Z,7.39
2018-05-07T02:44:06.649Z,7.39
2018-05-07T02:44:19.103Z,7.39
2018-05-07T02:44:31.743Z,7.39
2018-05-07T02:44:44.165Z,7.39
2018-05-07T02:44:56.601Z,7.39
2018-05-07T02:45:09.043Z,7.39
2018-05-07T02:45:21.468Z,7.39
2018-05-07T02:45:33.900Z,7.39
2018-05-07T02:45:46.322Z,7.39
2018-05-07T02:45:58.765Z,7.39
2018-05-07T02:46:11.216Z,7.39